Wilsonville, Kentucky
Current Conditions -  °F | °C
As of 1:53 AM on Monday 24 Nov 2014 (Local Time) from KLOU Reporting Station
Light Rain Light Rain  
Wind Chill: 60°   Ceiling: 1700
Heat Index: 60°   Visibility: 6mi
Dew Point: 57°   Wind: 9mph
Humidity: 90%   Direction: 200°SSW
Pressure: 29.36"   Gusts: 20mph
Location:  38.1735°N, 85.4233°W
Report Text: KLOU 240653Z AUTO 20008G17KT 6SM -RA BR BKN017 OVC021 16/14 A2936 RMK AO2 RAB10E30B46 SLP941 P0001 T01560139
Loading
Personal Weather Stations






























Interactive Weather Map New forecast layout! Learn more

10-Day Weather Forecast

Advertisements
Track Severe Weather on mobile